Time;durP1;ratioP1;P1;durP2;ratioP2;P2;SDS_P1;SDS_P2;PMS_P1;PMS_P2;Temp;Humidity;BMP_temperature;BMP_pressure;BME280_temperature;BME280_humidity;BME280_pressure;Samples;Min_cycle;Max_cycle;Signal;HPM_P1;HPM_P2
2023/10/27 00:00:08;;;;;;;5.78;3.10;;;;;;;14.18;67.80;92585.19;521604;28;833;-41
2023/10/27 00:00:23;;;;;;;5.63;3.43;;;;;;;14.18;67.80;92590.75;521579;28;866;-41
2023/10/27 00:00:38;;;;;;;6.90;3.03;;;;;;;14.18;67.86;92585.94;521543;28;824;-41
2023/10/27 00:00:54;;;;;;;5.37;2.53;;;;;;;14.18;67.95;92583.16;521644;28;856;-41
2023/10/27 00:01:10;;;;;;;3.42;2.60;;;;;;;14.19;68.03;92589.41;521506;28;1130;-41
2023/10/27 00:01:25;;;;;;;3.60;2.50;;;;;;;14.19;67.96;92579.03;521572;28;1058;-41
2023/10/27 00:01:40;;;;;;;3.75;2.63;;;;;;;14.17;67.96;92583.72;521580;28;1186;-41
2023/10/27 00:01:56;;;;;;;3.67;2.93;;;;;;;14.17;68.14;92587.22;521536;28;828;-41
2023/10/27 00:02:12;;;;;;;3.67;2.90;;;;;;;14.18;68.13;92593.53;521619;28;844;-41
2023/10/27 00:02:27;;;;;;;3.63;2.30;;;;;;;14.17;68.19;92592.06;521564;28;998;-41
2023/10/27 00:02:43;;;;;;;4.53;2.38;;;;;;;14.18;68.19;92585.94;521454;28;809;-41
2023/10/27 00:02:58;;;;;;;4.87;2.73;;;;;;;14.17;68.41;92583.72;521438;28;817;-41
2023/10/27 00:03:13;;;;;;;4.77;2.57;;;;;;;14.16;68.39;92582.28;521457;28;796;-41
2023/10/27 00:03:29;;;;;;;4.70;2.47;;;;;;;14.16;68.54;92588.53;521386;28;920;-41
2023/10/27 00:03:44;;;;;;;4.30;2.70;;;;;;;14.17;68.57;92586.50;521412;28;883;-41
2023/10/27 00:03:59;;;;;;;4.37;2.80;;;;;;;14.17;68.57;92583.72;521430;28;862;-41
2023/10/27 00:04:15;;;;;;;4.63;2.70;;;;;;;14.17;68.49;92578.16;521410;28;947;-41
2023/10/27 00:04:30;;;;;;;4.97;2.93;;;;;;;14.18;68.38;92582.41;521466;28;793;-41
2023/10/27 00:04:45;;;;;;;4.30;2.80;;;;;;;14.18;68.27;92580.38;521532;28;809;-41
2023/10/27 00:05:01;;;;;;;3.97;2.42;;;;;;;14.19;68.13;92575.53;521626;28;902;-41
2023/10/27 00:05:16;;;;;;;3.40;2.30;;;;;;;14.19;67.99;92575.53;521575;28;872;-41
2023/10/27 00:05:32;;;;;;;3.70;2.35;;;;;;;14.18;68.04;92574.81;521553;28;942;-41
2023/10/27 00:05:47;;;;;;;4.00;2.50;;;;;;;14.19;67.92;92575.53;521546;28;893;-41
2023/10/27 00:06:03;;;;;;;3.37;2.50;;;;;;;14.18;67.86;92568.53;521653;28;885;-41
2023/10/27 00:06:18;;;;;;;2.90;2.45;;;;;;;14.18;68.02;92572.03;521528;28;919;-41
2023/10/27 00:06:34;;;;;;;4.30;2.47;;;;;;;14.18;67.84;92565.75;521632;28;789;-41
2023/10/27 00:06:49;;;;;;;4.43;2.63;;;;;;;14.16;67.75;92566.34;521510;28;880;-41
2023/10/27 00:07:04;;;;;;;2.97;2.50;;;;;;;14.16;67.72;92569.09;521631;28;1115;-41
2023/10/27 00:07:20;;;;;;;3.73;2.63;;;;;;;14.16;67.91;92573.94;521494;28;1203;-41
2023/10/27 00:07:35;;;;;;;4.70;3.00;;;;;;;14.16;68.00;92576.72;521550;28;1146;-41
2023/10/27 00:07:50;;;;;;;3.83;2.90;;;;;;;14.14;67.74;92568.97;521513;28;864;-41
2023/10/27 00:08:06;;;;;;;3.30;2.70;;;;;;;14.13;68.01;92567.53;521467;28;946;-41
2023/10/27 00:08:21;;;;;;;3.73;2.60;;;;;;;14.13;67.87;92572.34;521573;28;884;-41
2023/10/27 00:08:37;;;;;;;3.23;2.57;;;;;;;14.13;68.10;92573.09;521498;28;913;-41
2023/10/27 00:08:52;;;;;;;3.47;2.92;;;;;;;14.13;67.87;92577.91;521646;28;843;-41
2023/10/27 00:09:07;;;;;;;4.40;3.03;;;;;;;14.12;67.97;92576.47;521525;28;926;-41
2023/10/27 00:09:23;;;;;;;3.37;2.83;;;;;;;14.12;67.96;92577.16;521543;28;892;-41
2023/10/27 00:09:39;;;;;;;3.05;2.67;;;;;;;14.12;68.01;92573.69;521544;28;856;-41
2023/10/27 00:09:54;;;;;;;3.95;2.60;;;;;;;14.10;68.14;92573.53;521626;28;872;-41
2023/10/27 00:10:10;;;;;;;4.80;2.73;;;;;;;14.10;68.17;92570.75;521565;28;915;-41
2023/10/27 00:10:25;;;;;;;4.55;2.78;;;;;;;14.09;68.31;92577.63;521621;28;864;-41
2023/10/27 00:10:41;;;;;;;3.67;2.47;;;;;;;14.09;68.24;92572.09;521615;28;909;-41
2023/10/27 00:10:56;;;;;;;3.40;2.75;;;;;;;14.09;67.91;92569.31;521566;28;847;-41
2023/10/27 00:11:11;;;;;;;3.53;3.00;;;;;;;14.08;68.24;92565.81;521624;28;786;-41
2023/10/27 00:11:27;;;;;;;3.83;2.87;;;;;;;14.09;68.06;92569.31;521552;28;1111;-41
2023/10/27 00:11:43;;;;;;;3.80;2.70;;;;;;;14.09;67.98;92577.63;521560;28;883;-41
2023/10/27 00:11:58;;;;;;;4.25;2.88;;;;;;;14.06;68.09;92574.00;521553;28;1108;-41
2023/10/27 00:12:13;;;;;;;5.80;3.10;;;;;;;14.06;68.18;92576.78;521531;28;1183;-41
2023/10/27 00:12:29;;;;;;;6.20;2.87;;;;;;;14.05;68.22;92575.34;521578;28;948;-41
2023/10/27 00:12:44;;;;;;;4.95;2.90;;;;;;;14.05;68.10;92585.69;521518;28;880;-41
2023/10/27 00:13:00;;;;;;;3.80;2.90;;;;;;;14.04;68.25;92582.19;521631;28;899;-41
2023/10/27 00:13:15;;;;;;;3.73;2.70;;;;;;;14.03;68.31;92577.25;521575;28;825;-41
2023/10/27 00:13:31;;;;;;;4.20;2.88;;;;;;;13.88;68.20;92564.44;521671;28;749;-41
2023/10/27 00:13:46;;;;;;;3.80;2.85;;;;;;;14.03;68.38;92580.75;521591;28;871;-41
2023/10/27 00:14:03;;;;;;;4.20;2.90;;;;;;;14.02;68.58;92579.28;521484;28;1006;-41
2023/10/27 00:14:18;;;;;;;4.57;3.20;;;;;;;14.03;68.33;92583.53;521566;28;981;-41
2023/10/27 00:14:34;;;;;;;5.13;3.08;;;;;;;14.03;68.30;92586.31;521654;28;797;-41
2023/10/27 00:14:49;;;;;;;4.60;2.67;;;;;;;14.02;68.34;92581.31;521525;28;1647;-41
2023/10/27 00:15:06;;;;;;;4.07;2.70;;;;;;;14.04;68.27;92584.22;521594;28;883;-41
2023/10/27 00:15:22;;;;;;;3.85;2.63;;;;;;;14.03;68.47;92588.34;521663;28;831;-41
2023/10/27 00:15:37;;;;;;;5.32;2.88;;;;;;;14.04;68.53;92587.00;521572;28;910;-41
2023/10/27 00:15:53;;;;;;;5.37;2.87;;;;;;;13.90;68.45;92574.97;521646;28;765;-41
2023/10/27 00:16:09;;;;;;;2.67;2.43;;;;;;;13.85;68.36;92562.13;521509;28;793;-41
2023/10/27 00:16:25;;;;;;;3.08;2.55;;;;;;;14.03;68.47;92591.84;521595;28;880;-41
2023/10/27 00:16:40;;;;;;;3.93;2.80;;;;;;;14.02;68.58;92584.09;521528;28;817;-41
2023/10/27 00:16:55;;;;;;;3.80;2.58;;;;;;;14.00;68.46;92576.38;521601;28;833;-41
2023/10/27 00:17:11;;;;;;;3.40;2.37;;;;;;;14.01;68.32;92572.25;521333;28;934;-41
2023/10/27 00:17:26;;;;;;;4.67;2.83;;;;;;;13.98;68.18;92573.47;521433;28;796;-41
2023/10/27 00:17:41;;;;;;;5.13;3.13;;;;;;;14.02;68.17;92576.50;521392;28;1127;-41
2023/10/27 00:17:58;;;;;;;4.50;2.93;;;;;;;14.01;68.16;92579.88;521386;28;868;-41
2023/10/27 00:18:13;;;;;;;3.78;2.85;;;;;;;14.01;67.99;92577.09;521380;28;879;-41
2023/10/27 00:18:29;;;;;;;3.03;2.67;;;;;;;14.00;68.19;92572.88;521446;28;884;-41
2023/10/27 00:18:44;;;;;;;4.40;2.70;;;;;;;13.97;68.29;92571.28;521411;28;965;-41
2023/10/27 00:19:00;;;;;;;4.88;2.72;;;;;;;13.95;68.30;92566.31;521370;28;895;-41
2023/10/27 00:19:15;;;;;;;5.93;2.77;;;;;;;13.95;68.29;92577.41;521578;28;953;-42
2023/10/27 00:19:30;;;;;;;6.37;2.80;;;;;;;13.93;68.33;92574.50;521496;28;2476;-41
2023/10/27 00:19:46;;;;;;;4.57;2.63;;;;;;;13.93;68.51;92576.53;521523;28;957;-42
2023/10/27 00:20:05;;;;;;;5.27;2.63;;;;;;;13.93;68.53;92576.53;521706;28;915;-41
2023/10/27 00:20:21;;;;;;;4.43;2.72;;;;;;;13.93;68.60;92584.88;521564;28;1035;-41
2023/10/27 00:20:36;;;;;;;4.10;2.83;;;;;;;13.78;68.55;92566.53;521510;28;809;-41
2023/10/27 00:20:51;;;;;;;4.13;2.93;;;;;;;13.92;68.80;92581.38;521662;28;789;-41
2023/10/27 00:21:07;;;;;;;3.38;2.90;;;;;;;13.91;68.93;92581.97;521533;28;820;-41
2023/10/27 00:21:22;;;;;;;2.70;2.50;;;;;;;13.92;69.05;92586.19;521573;28;863;-41
2023/10/27 00:21:38;;;;;;;2.73;2.50;;;;;;;13.91;68.92;92584.72;521476;28;869;-41
2023/10/27 00:21:53;;;;;;;3.10;2.80;;;;;;;13.90;68.94;92572.19;521617;28;844;-41
2023/10/27 00:22:08;;;;;;;3.20;2.90;;;;;;;13.89;68.94;92579.78;521466;28;915;-41
2023/10/27 00:22:25;;;;;;;3.17;2.73;;;;;;;13.79;68.69;92558.94;521575;28;813;-41
2023/10/27 00:22:40;;;;;;;3.35;2.63;;;;;;;13.90;68.42;92572.19;521576;28;895;-41
2023/10/27 00:22:56;;;;;;;3.73;2.73;;;;;;;13.90;68.57;92572.19;521533;28;804;-41
2023/10/27 00:23:11;;;;;;;3.70;2.97;;;;;;;13.90;68.46;92583.28;521561;28;821;-41
2023/10/27 00:23:27;;;;;;;4.20;3.00;;;;;;;13.89;68.62;92577.00;521527;28;829;-41
2023/10/27 00:23:42;;;;;;;4.57;2.90;;;;;;;13.87;68.57;92585.19;521607;28;817;-41
2023/10/27 00:23:57;;;;;;;3.97;3.00;;;;;;;13.86;68.50;92583.72;521465;28;946;-41
2023/10/27 00:24:13;;;;;;;3.43;2.90;;;;;;;13.87;68.55;92578.91;521521;28;911;-41
2023/10/27 00:24:28;;;;;;;5.97;3.05;;;;;;;13.86;68.58;92585.78;521467;28;836;-41
2023/10/27 00:24:43;;;;;;;5.90;2.97;;;;;;;13.85;68.61;92582.28;521612;28;1067;-41
2023/10/27 00:24:59;;;;;;;3.73;2.60;;;;;;;13.85;68.63;92585.06;521532;28;871;-41
2023/10/27 00:25:15;;;;;;;4.20;2.78;;;;;;;13.85;68.60;92581.56;521588;28;1554;-41
2023/10/27 00:25:30;;;;;;;3.60;2.80;;;;;;;13.84;68.72;92589.13;521566;28;896;-41
2023/10/27 00:25:46;;;;;;;3.53;3.00;;;;;;;13.84;68.79;92580.81;521540;28;852;-41
2023/10/27 00:26:02;;;;;;;5.28;3.03;;;;;;;13.85;68.96;92581.56;521606;28;820;-41
2023/10/27 00:26:17;;;;;;;5.38;2.65;;;;;;;13.85;68.88;92581.56;521556;28;773;-41
2023/10/27 00:26:32;;;;;;;3.13;2.53;;;;;;;13.83;68.93;92582.16;521911;28;873;-41
2023/10/27 00:26:48;;;;;;;3.13;2.80;;;;;;;13.75;69.10;92573.28;521897;28;920;-41
2023/10/27 00:27:04;;;;;;;3.97;2.92;;;;;;;13.85;69.14;92578.78;521946;28;927;-41
2023/10/27 00:27:20;;;;;;;7.00;2.83;;;;;;;13.84;69.15;92582.88;521887;28;970;-41
2023/10/27 00:27:35;;;;;;;5.10;2.65;;;;;;;13.83;69.38;92584.19;521983;28;830;-41
2023/10/27 00:27:51;;;;;;;2.97;2.63;;;;;;;13.83;69.07;92587.69;521924;28;833;-41
2023/10/27 00:28:06;;;;;;;3.97;2.60;;;;;;;13.83;69.21;92590.47;521845;28;998;-41
2023/10/27 00:28:21;;;;;;;4.27;2.40;;;;;;;13.84;69.05;92591.91;521942;28;1665;-41
2023/10/27 00:28:38;;;;;;;3.93;2.77;;;;;;;13.84;69.08;92586.38;521830;28;880;-41
2023/10/27 00:28:53;;;;;;;5.15;3.10;;;;;;;13.85;69.02;92587.09;521908;28;912;-41
2023/10/27 00:29:08;;;;;;;4.45;3.05;;;;;;;13.85;68.93;92592.66;521748;28;920;-41
2023/10/27 00:29:24;;;;;;;3.67;3.00;;;;;;;13.84;68.93;92589.13;521940;28;800;-41
2023/10/27 00:29:39;;;;;;;4.47;2.90;;;;;;;13.84;69.10;92586.38;521897;28;841;-41
2023/10/27 00:29:55;;;;;;;4.25;2.90;;;;;;;13.84;69.06;92583.59;521926;28;1087;-41
2023/10/27 00:30:11;;;;;;;3.50;2.83;;;;;;;13.71;68.72;92566.72;521843;28;825;-41
2023/10/27 00:30:26;;;;;;;3.33;2.90;;;;;;;13.84;68.55;92583.59;521875;28;844;-41
2023/10/27 00:30:41;;;;;;;3.75;2.83;;;;;;;13.85;68.47;92581.56;521911;28;880;-41
2023/10/27 00:30:58;;;;;;;3.77;2.70;;;;;;;13.85;68.41;92587.09;521833;28;917;-41
2023/10/27 00:31:14;;;;;;;3.35;2.55;;;;;;;13.84;68.28;92586.38;521973;28;913;-41
2023/10/27 00:31:29;;;;;;;3.10;2.50;;;;;;;13.84;68.43;92585.66;521901;28;868;-41
2023/10/27 00:31:44;;;;;;;4.07;2.73;;;;;;;13.82;68.45;92580.69;521894;28;955;-41
2023/10/27 00:32:00;;;;;;;4.13;3.10;;;;;;;13.80;68.65;92580.53;521927;28;785;-41
2023/10/27 00:32:15;;;;;;;3.57;3.07;;;;;;;13.80;68.34;92585.34;521848;28;927;-42
2023/10/27 00:32:30;;;;;;;3.40;2.70;;;;;;;13.78;68.46;92588.72;521926;28;875;-42
2023/10/27 00:32:47;;;;;;;4.45;2.55;;;;;;;13.77;68.57;92587.28;521853;28;876;-42
2023/10/27 00:33:02;;;;;;;5.32;2.67;;;;;;;13.75;68.68;92594.75;522016;28;836;-42
2023/10/27 00:33:17;;;;;;;4.30;3.07;;;;;;;13.71;68.78;92592.41;521744;28;2420;-42
2023/10/27 00:33:34;;;;;;;4.05;3.33;;;;;;;13.69;68.84;92593.00;521944;28;958;-42
2023/10/27 00:33:49;;;;;;;5.45;3.78;;;;;;;13.68;69.05;92588.78;521820;28;907;-42
2023/10/27 00:34:05;;;;;;;5.05;4.00;;;;;;;13.69;69.09;92592.28;521792;28;958;-42
2023/10/27 00:34:20;;;;;;;4.57;3.73;;;;;;;13.67;69.28;92584.53;521871;28;869;-41
2023/10/27 00:34:35;;;;;;;5.03;3.80;;;;;;;13.68;69.21;92586.00;521825;28;927;-41
2023/10/27 00:34:51;;;;;;;5.97;3.88;;;;;;;13.69;69.01;92583.94;521890;28;939;-41
2023/10/27 00:35:06;;;;;;;5.43;3.83;;;;;;;13.68;68.79;92588.78;521842;28;773;-41
2023/10/27 00:35:22;;;;;;;5.30;3.92;;;;;;;13.68;68.90;92591.56;521916;28;1094;-41
2023/10/27 00:35:37;;;;;;;5.80;3.90;;;;;;;13.67;68.91;92587.31;521832;28;824;-41
2023/10/27 00:35:53;;;;;;;6.35;3.90;;;;;;;13.67;68.86;92589.34;521907;28;892;-41
2023/10/27 00:36:09;;;;;;;7.90;3.97;;;;;;;13.66;68.88;92593.47;521883;28;867;-41
2023/10/27 00:36:24;;;;;;;6.37;4.00;;;;;;;13.64;68.99;92591.25;521948;28;859;-41
2023/10/27 00:36:40;;;;;;;4.27;3.80;;;;;;;13.62;69.02;92588.34;521931;28;820;-41
2023/10/27 00:36:55;;;;;;;4.50;4.15;;;;;;;13.62;69.23;92593.91;521861;28;789;-41
2023/10/27 00:37:11;;;;;;;4.87;4.47;;;;;;;13.62;69.16;92591.13;521939;28;825;-41
2023/10/27 00:37:26;;;;;;;8.40;4.45;;;;;;;13.56;69.35;92582.41;521838;28;793;-41
2023/10/27 00:37:41;;;;;;;8.63;4.20;;;;;;;13.58;69.24;92592.88;521963;28;773;-41
2023/10/27 00:37:57;;;;;;;4.77;3.70;;;;;;;13.52;69.66;92598.03;521877;28;1091;-41
2023/10/27 00:38:13;;;;;;;4.30;3.53;;;;;;;13.49;69.54;92597.16;522007;28;851;-41
2023/10/27 00:38:30;;;;;;;4.85;3.58;;;;;;;13.49;69.76;92591.59;521870;28;785;-41
2023/10/27 00:38:50;;;;;;;4.95;3.75;;;;;;;13.49;69.69;92590.91;521907;28;955;-41
2023/10/27 00:39:05;;;;;;;4.07;3.30;;;;;;;13.48;69.99;92587.38;521897;28;863;-41
2023/10/27 00:39:21;;;;;;;5.93;3.70;;;;;;;13.49;69.89;92590.91;521934;28;801;-41
2023/10/27 00:39:37;;;;;;;5.85;3.95;;;;;;;13.48;70.12;92590.16;521786;28;2062;-41
2023/10/27 00:39:52;;;;;;;3.92;3.63;;;;;;;13.48;70.07;92592.94;521987;28;860;-41
2023/10/27 00:40:08;;;;;;;4.77;3.77;;;;;;;13.48;70.08;92590.16;521752;28;876;-41
2023/10/27 00:40:23;;;;;;;5.00;3.80;;;;;;;13.48;70.15;92598.47;521731;28;2506;-41
2023/10/27 00:40:38;;;;;;;5.97;3.40;;;;;;;13.50;70.18;92595.13;521732;28;794;-41
2023/10/27 00:40:54;;;;;;;6.57;3.43;;;;;;;13.50;70.19;92590.31;521764;28;900;-41
2023/10/27 00:41:09;;;;;;;5.18;3.92;;;;;;;13.51;70.50;92588.97;521642;28;968;-41
2023/10/27 00:41:25;;;;;;;5.10;4.00;;;;;;;13.51;70.61;92594.50;521748;28;801;-41
2023/10/27 00:41:40;;;;;;;4.53;3.53;;;;;;;13.51;70.51;92588.97;521633;28;813;-41
2023/10/27 00:41:56;;;;;;;4.20;3.40;;;;;;;13.52;70.69;92582.13;521736;28;978;-41
2023/10/27 00:42:12;;;;;;;4.28;3.50;;;;;;;13.52;70.73;92589.69;521819;28;824;-41
2023/10/27 00:42:27;;;;;;;4.07;3.53;;;;;;;13.39;70.64;92565.22;521870;28;797;-41
2023/10/27 00:42:43;;;;;;;4.45;3.75;;;;;;;13.52;70.60;92584.91;521914;28;812;-41
2023/10/27 00:42:58;;;;;;;4.13;3.63;;;;;;;13.53;70.29;92585.63;521868;28;805;-41
2023/10/27 00:43:17;;;;;;;5.95;3.58;;;;;;;13.54;70.12;92587.06;521885;28;865;-41
2023/10/27 00:43:32;;;;;;;6.95;3.85;;;;;;;13.53;70.22;92589.13;521870;28;896;-41
2023/10/27 00:43:48;;;;;;;5.20;3.80;;;;;;;13.55;70.13;92589.28;521905;28;825;-41
2023/10/27 00:44:03;;;;;;;4.70;3.80;;;;;;;13.56;70.11;92584.44;521876;28;931;-41
2023/10/27 00:44:19;;;;;;;4.60;3.70;;;;;;;13.56;70.10;92590.72;521797;28;821;-41
2023/10/27 00:44:35;;;;;;;5.50;3.53;;;;;;;13.58;69.88;92588.06;521877;28;957;-41
2023/10/27 00:44:50;;;;;;;4.72;3.53;;;;;;;13.59;69.76;92594.34;521862;28;1519;-41
2023/10/27 00:45:06;;;;;;;3.90;3.40;;;;;;;13.60;69.75;92590.25;521807;28;975;-41
2023/10/27 00:45:21;;;;;;;4.23;3.53;;;;;;;13.61;69.85;92591.72;521990;28;802;-41
2023/10/27 00:45:36;;;;;;;4.80;3.55;;;;;;;13.61;69.67;92597.28;521625;28;1016;-41
2023/10/27 00:45:53;;;;;;;4.70;3.40;;;;;;;13.62;69.81;92587.66;521843;28;833;-41
2023/10/27 00:46:09;;;;;;;4.15;3.30;;;;;;;13.62;69.71;92588.34;521659;28;839;-41
2023/10/27 00:46:24;;;;;;;4.93;3.63;;;;;;;13.63;69.85;92589.81;521727;28;939;-41
2023/10/27 00:46:40;;;;;;;6.43;3.85;;;;;;;13.59;69.65;92584.00;519615;28;829;-41
2023/10/27 00:46:55;;;;;;;7.30;3.60;;;;;;;13.64;69.82;92594.03;519676;28;916;-41
2023/10/27 00:47:11;;;;;;;6.70;3.47;;;;;;;13.65;69.79;92592.00;519662;28;1081;-42
2023/10/27 00:47:28;;;;;;;4.47;3.43;;;;;;;13.66;69.78;92587.91;520185;28;832;-41
2023/10/27 00:47:43;;;;;;;3.95;3.33;;;;;;;13.66;69.79;92594.19;519633;28;904;-41
2023/10/27 00:47:59;;;;;;;4.45;3.00;;;;;;;13.53;69.63;92575.28;518225;28;1184;-41
2023/10/27 00:48:16;;;;;;;4.82;3.03;;;;;;;13.65;69.52;92587.19;517581;28;861;-41
2023/10/27 00:48:31;;;;;;;3.83;3.15;;;;;;;13.65;69.50;92587.19;518389;28;964;-41
2023/10/27 00:48:46;;;;;;;3.80;3.17;;;;;;;13.65;69.53;92581.63;519580;28;920;-41
2023/10/27 00:49:02;;;;;;;3.60;3.15;;;;;;;13.67;69.37;92587.31;527626;27;1308;-41
2023/10/27 00:49:18;;;;;;;4.73;3.03;;;;;;;13.68;69.44;92588.78;530346;27;820;-41
2023/10/27 00:49:34;;;;;;;4.67;3.00;;;;;;;13.68;69.43;92583.25;530566;27;868;-41
2023/10/27 00:49:49;;;;;;;3.50;2.92;;;;;;;13.69;69.28;92581.19;530258;27;1984;-41
2023/10/27 00:50:05;;;;;;;3.63;3.05;;;;;;;13.66;69.16;92580.31;530527;27;839;-41
2023/10/27 00:50:21;;;;;;;3.93;3.27;;;;;;;13.69;69.02;92584.69;528324;28;1040;-41
2023/10/27 00:50:37;;;;;;;3.53;3.22;;;;;;;13.71;69.17;92586.16;526248;28;857;-41
2023/10/27 00:50:52;;;;;;;3.95;3.10;;;;;;;13.71;69.09;92586.16;526277;28;863;-41
2023/10/27 00:51:09;;;;;;;4.20;3.10;;;;;;;13.71;68.99;92591.69;526179;28;1204;-41
2023/10/27 00:51:25;;;;;;;3.15;2.88;;;;;;;13.53;69.21;92564.19;526230;28;901;-41
2023/10/27 00:51:41;;;;;;;3.38;2.88;;;;;;;13.71;69.08;92591.69;526935;28;876;-41
2023/10/27 00:51:56;;;;;;;4.35;3.20;;;;;;;13.70;69.06;92585.41;528223;28;873;-41
2023/10/27 00:52:14;;;;;;;4.90;3.47;;;;;;;13.67;69.10;92592.13;526951;28;795;-41
2023/10/27 00:52:29;;;;;;;5.10;2.92;;;;;;;13.60;68.97;92579.91;527142;28;1010;-41
2023/10/27 00:52:45;;;;;;;4.33;2.77;;;;;;;13.63;68.96;92598.13;526251;28;845;-41
2023/10/27 00:53:00;;;;;;;3.22;2.92;;;;;;;13.61;69.20;92592.47;526182;28;1154;-41
2023/10/27 00:53:18;;;;;;;3.33;3.03;;;;;;;13.61;69.22;92591.72;526253;28;824;-41
2023/10/27 00:53:34;;;;;;;5.10;3.10;;;;;;;13.60;69.25;92591.00;526221;28;857;-41
2023/10/27 00:53:51;;;;;;;4.68;3.17;;;;;;;13.61;69.28;92592.47;526235;28;899;-41
2023/10/27 00:54:08;;;;;;;4.03;3.10;;;;;;;13.62;69.15;92591.13;527268;28;2735;-41
2023/10/27 00:54:25;;;;;;;4.35;3.22;;;;;;;13.62;69.24;92588.34;529586;27;877;-41
2023/10/27 00:54:43;;;;;;;3.88;3.03;;;;;;;13.63;69.19;92600.19;531838;27;990;-41
2023/10/27 00:54:59;;;;;;;3.72;3.22;;;;;;;13.64;69.34;92596.81;532612;27;808;-41
2023/10/27 00:55:14;;;;;;;4.15;3.22;;;;;;;13.64;69.27;92594.03;530452;27;804;-41
2023/10/27 00:55:30;;;;;;;5.57;2.90;;;;;;;13.66;69.40;92599.00;530442;27;857;-41
2023/10/27 00:55:47;;;;;;;5.93;3.22;;;;;;;13.66;69.30;92594.19;530459;27;907;-41
2023/10/27 00:56:04;;;;;;;5.50;3.50;;;;;;;13.53;69.50;92580.81;530487;27;808;-41
2023/10/27 00:56:20;;;;;;;4.72;3.17;;;;;;;13.69;69.23;92598.56;528283;28;971;-41
2023/10/27 00:56:36;;;;;;;4.65;3.00;;;;;;;13.69;69.32;92593.00;528351;28;1079;-41
2023/10/27 00:56:51;;;;;;;3.75;3.33;;;;;;;13.72;69.16;92598.69;526224;28;1574;-41
2023/10/27 00:57:07;;;;;;;3.97;3.38;;;;;;;13.72;69.25;92593.13;527118;28;872;-41
2023/10/27 00:57:25;;;;;;;4.50;3.33;;;;;;;13.59;69.28;92574.94;526241;28;1008;-41
2023/10/27 00:57:41;;;;;;;3.28;2.97;;;;;;;13.73;69.07;92598.09;526242;28;915;-41
2023/10/27 00:57:57;;;;;;;3.67;2.97;;;;;;;13.74;69.15;92594.00;526189;28;873;-41
2023/10/27 00:58:13;;;;;;;4.75;3.05;;;;;;;13.74;68.82;92591.25;527412;28;904;-41
2023/10/27 00:58:29;;;;;;;4.43;3.30;;;;;;;13.74;68.94;92596.78;528321;28;894;-41
2023/10/27 00:58:45;;;;;;;3.73;3.33;;;;;;;13.75;68.97;92589.19;529256;27;979;-41
2023/10/27 00:59:00;;;;;;;3.67;3.38;;;;;;;13.74;68.99;92594.00;528313;28;889;-41
2023/10/27 00:59:16;;;;;;;4.17;3.43;;;;;;;13.74;69.01;92591.25;527241;28;883;-41
2023/10/27 00:59:32;;;;;;;4.27;3.23;;;;;;;13.75;69.00;92589.19;526065;28;1922;-41
2023/10/27 00:59:47;;;;;;;3.72;3.15;;;;;;;13.75;68.96;92589.19;526197;28;990;-41
2023/10/27 01:00:07;;;;;;;3.60;3.17;;;;;;;13.74;68.97;92590.50;526249;28;1567;-41
2023/10/27 01:00:23;;;;;;;4.75;2.92;;;;;;;13.73;68.90;92589.75;526168;28;1039;-41
2023/10/27 01:00:38;;;;;;;5.53;3.43;;;;;;;13.73;69.13;92592.53;526222;28;1147;-41
2023/10/27 01:00:56;;;;;;;3.55;3.20;;;;;;;13.73;69.24;92589.75;527361;28;953;-41
2023/10/27 01:01:15;;;;;;;3.70;3.38;;;;;;;13.73;69.24;92587.00;528378;28;857;-41
2023/10/27 01:01:31;;;;;;;4.40;4.00;;;;;;;13.74;69.16;92582.19;530125;27;1622;-41
2023/10/27 01:01:46;;;;;;;4.97;4.05;;;;;;;13.73;69.23;92586.28;530197;27;940;-41
2023/10/27 01:02:02;;;;;;;5.20;3.57;;;;;;;13.73;69.23;92586.28;530462;27;796;-41
2023/10/27 01:02:18;;;;;;;4.10;3.10;;;;;;;13.73;69.22;92587.00;530344;27;991;-41
2023/10/27 01:02:34;;;;;;;3.97;3.10;;;;;;;13.73;69.58;92580.75;530407;27;884;-41
2023/10/27 01:02:49;;;;;;;4.77;3.43;;;;;;;13.73;69.44;92584.22;530420;27;962;-41
2023/10/27 01:03:05;;;;;;;3.63;3.20;;;;;;;13.72;69.62;92579.28;530433;27;864;-41
2023/10/27 01:03:20;;;;;;;3.97;3.38;;;;;;;13.68;69.32;92577.69;530343;27;916;-41
2023/10/27 01:03:35;;;;;;;4.67;3.70;;;;;;;13.73;69.61;92586.28;530501;27;772;-41
2023/10/27 01:03:51;;;;;;;3.72;3.38;;;;;;;13.74;69.55;92576.63;530613;27;925;-41
2023/10/27 01:04:06;;;;;;;3.33;3.03;;;;;;;13.74;69.36;92573.84;530514;27;872;-41
2023/10/27 01:04:22;;;;;;;3.30;3.00;;;;;;;13.74;69.21;92571.81;530660;27;852;-41
2023/10/27 01:04:38;;;;;;;3.40;3.10;;;;;;;13.74;69.09;92582.19;530471;27;957;-41
2023/10/27 01:04:53;;;;;;;3.70;3.35;;;;;;;13.74;69.06;92574.59;530649;27;812;-41
2023/10/27 01:05:08;;;;;;;3.83;3.43;;;;;;;13.74;68.95;92577.38;530569;27;911;-41
2023/10/27 01:05:24;;;;;;;4.43;3.35;;;;;;;13.74;68.91;92577.38;530578;27;879;-41
2023/10/27 01:05:39;;;;;;;3.77;3.00;;;;;;;13.75;69.01;92575.31;530610;27;808;-41
2023/10/27 01:05:55;;;;;;;3.53;3.15;;;;;;;13.75;68.84;92578.09;530560;27;1700;-41
2023/10/27 01:06:10;;;;;;;4.80;3.60;;;;;;;13.75;68.96;92578.84;530623;27;1061;-41
2023/10/27 01:06:26;;;;;;;3.97;3.40;;;;;;;13.74;68.92;92574.59;530604;27;847;-41
2023/10/27 01:06:41;;;;;;;3.95;3.35;;;;;;;13.75;68.90;92584.38;530692;27;855;-41
2023/10/27 01:06:57;;;;;;;4.17;3.47;;;;;;;13.75;69.01;92578.84;530576;27;890;-41
2023/10/27 01:07:13;;;;;;;4.18;3.58;;;;;;;13.76;68.59;92582.31;530680;27;827;-41
2023/10/27 01:07:28;;;;;;;4.15;3.63;;;;;;;13.76;68.68;92579.53;530386;27;1144;-41
2023/10/27 01:07:43;;;;;;;4.27;3.77;;;;;;;13.76;68.64;92585.09;530472;27;935;-41
2023/10/27 01:08:02;;;;;;;3.80;3.40;;;;;;;13.73;68.65;92589.75;530347;27;888;-41
2023/10/27 01:08:17;;;;;;;3.95;3.55;;;;;;;13.65;68.72;92580.91;530394;27;818;-41
2023/10/27 01:08:33;;;;;;;4.40;3.80;;;;;;;13.71;68.88;92583.38;530420;27;821;-41
2023/10/27 01:08:48;;;;;;;4.38;3.67;;;;;;;13.70;68.83;92585.41;530439;27;843;-41
2023/10/27 01:09:04;;;;;;;4.07;3.67;;;;;;;13.70;68.90;92588.19;530473;27;863;-41
2023/10/27 01:09:19;;;;;;;4.05;3.65;;;;;;;13.70;68.97;92582.66;530459;27;843;-41
2023/10/27 01:09:35;;;;;;;4.80;3.77;;;;;;;13.71;69.07;92583.38;530601;27;847;-41
2023/10/27 01:09:51;;;;;;;5.07;3.80;;;;;;;13.71;69.05;92586.84;530559;27;878;-41
2023/10/27 01:10:07;;;;;;;4.83;3.73;;;;;;;13.72;68.98;92585.56;530555;27;884;-41
2023/10/27 01:10:22;;;;;;;4.68;3.63;;;;;;;13.71;69.14;92578.53;530608;27;864;-41
2023/10/27 01:10:37;;;;;;;4.63;3.35;;;;;;;13.73;69.13;92586.28;530546;27;943;-41
2023/10/27 01:10:53;;;;;;;5.00;3.37;;;;;;;13.72;68.94;92582.78;530450;27;876;-41
2023/10/27 01:11:09;;;;;;;3.95;3.30;;;;;;;13.72;68.82;92584.81;530373;27;974;-41
2023/10/27 01:11:24;;;;;;;3.63;3.33;;;;;;;13.74;68.87;92587.72;530390;27;911;-41
2023/10/27 01:11:40;;;;;;;4.77;3.87;;;;;;;13.74;68.87;92582.91;528253;28;880;-41
2023/10/27 01:11:55;;;;;;;5.40;3.95;;;;;;;13.74;68.77;92582.19;528332;28;833;-41
2023/10/27 01:12:11;;;;;;;7.23;3.53;;;;;;;13.73;68.68;92578.66;528249;28;853;-41
2023/10/27 01:12:26;;;;;;;6.57;3.37;;;;;;;13.75;68.78;92583.66;528317;28;842;-41
2023/10/27 01:12:46;;;;;;;4.15;3.75;;;;;;;13.75;68.80;92584.38;528667;27;872;-41
2023/10/27 01:13:02;;;;;;;5.13;3.88;;;;;;;13.75;68.77;92589.94;530424;27;956;-41
2023/10/27 01:13:17;;;;;;;5.00;3.60;;;;;;;13.76;68.75;92579.53;530323;27;977;-41
2023/10/27 01:13:32;;;;;;;4.63;3.63;;;;;;;13.76;68.60;92579.53;529256;27;1583;-41
2023/10/27 01:13:54;;;;;;;4.03;3.63;;;;;;;13.76;68.46;92583.06;530366;27;812;-41
2023/10/27 01:14:10;;;;;;;3.97;3.58;;;;;;;13.75;68.46;92572.56;530352;27;821;-41
2023/10/27 01:14:27;;;;;;;3.97;3.30;;;;;;;13.75;68.48;92578.84;530390;27;950;-41
2023/10/27 01:14:42;;;;;;;4.45;3.42;;;;;;;13.76;68.49;92576.78;530327;27;946;-41
2023/10/27 01:14:57;;;;;;;6.43;4.07;;;;;;;13.76;68.44;92576.78;530431;27;860;-41
2023/10/27 01:15:13;;;;;;;7.90;4.32;;;;;;;13.74;68.58;92576.63;530418;27;856;-41
2023/10/27 01:15:30;;;;;;;6.53;3.83;;;;;;;13.74;68.73;92576.63;530499;27;784;-41
2023/10/27 01:15:45;;;;;;;5.85;3.70;;;;;;;13.75;68.71;92580.88;530530;27;965;-41
2023/10/27 01:16:00;;;;;;;6.03;3.90;;;;;;;13.74;68.75;92580.13;530676;27;900;-41
2023/10/27 01:16:16;;;;;;;6.78;3.85;;;;;;;13.74;68.86;92582.19;530472;27;861;-41
2023/10/27 01:16:31;;;;;;;5.47;3.53;;;;;;;13.74;68.96;92588.47;530614;27;900;-41
2023/10/27 01:16:46;;;;;;;3.55;3.25;;;;;;;13.73;68.83;92581.44;530518;27;862;-41